Time;durP1;ratioP1;P1;durP2;ratioP2;P2;SDS_P1;SDS_P2;PMS_P1;PMS_P2;Temp;Humidity;BMP_temperature;BMP_pressure;BME280_temperature;BME280_humidity;BME280_pressure;Samples;Min_cycle;Max_cycle;Signal;HPM_P1;HPM_P2
2023/10/25 00:01:05;;;;;;;13.72;6.62;;;;;;;20.49;59.66;99543.31;2285875;77;51567;-72
2023/10/25 00:04:08;;;;;;;13.35;6.90;;;;;;;20.49;59.61;99546.00;2280668;76;52661;-73
2023/10/25 00:07:10;;;;;;;9.58;6.55;;;;;;;20.47;59.62;99547.55;2297992;76;51545;-74
2023/10/25 00:10:12;;;;;;;13.78;7.10;;;;;;;20.45;59.62;99543.76;2301925;76;51511;-73
2023/10/25 00:13:14;;;;;;;14.98;6.55;;;;;;;20.43;59.67;99551.22;2277023;76;52676;-73
2023/10/25 00:16:16;;;;;;;12.60;6.53;;;;;;;20.41;59.71;99547.11;2302565;76;51445;-73
2023/10/25 00:19:19;;;;;;;10.90;6.65;;;;;;;20.38;59.73;99553.74;2275188;76;51491;-73
2023/10/25 00:22:21;;;;;;;10.60;6.12;;;;;;;20.41;59.77;99556.51;2313338;76;50539;-74
2023/10/25 00:25:24;;;;;;;14.40;6.58;;;;;;;20.46;59.71;99559.36;2338022;76;50478;-74
2023/10/25 00:28:26;;;;;;;13.15;5.97;;;;;;;20.49;59.62;99565.63;2324954;74;50137;-75
2023/10/25 00:31:28;;;;;;;12.13;6.47;;;;;;;20.51;59.57;99564.06;2299167;76;50014;-74
2023/10/25 00:34:30;;;;;;;11.18;6.62;;;;;;;20.50;59.56;99556.53;2325564;76;51534;-75
2023/10/25 00:37:33;;;;;;;13.35;6.65;;;;;;;20.49;59.56;99554.05;2282409;76;50958;-75
2023/10/25 00:40:35;;;;;;;12.03;6.25;;;;;;;20.47;59.55;99550.23;2302652;76;50073;-74
2023/10/25 00:43:37;;;;;;;11.55;6.25;;;;;;;20.44;59.57;99550.69;2302505;76;51569;-74
2023/10/25 00:46:40;;;;;;;13.62;6.25;;;;;;;20.41;59.64;99553.83;2274077;76;51414;-74
2023/10/25 00:49:42;;;;;;;11.80;6.53;;;;;;;20.41;59.62;99555.16;2326813;76;51506;-74
2023/10/25 00:52:45;;;;;;;10.78;6.55;;;;;;;20.39;59.66;99546.50;2328043;76;52449;-74
2023/10/25 00:55:47;;;;;;;11.05;6.25;;;;;;;20.40;59.70;99548.98;2302317;76;50661;-73
2023/10/25 00:58:51;;;;;;;8.98;5.58;;;;;;;20.46;59.64;99545.92;2326714;74;50776;-73
2023/10/25 01:01:53;;;;;;;10.18;6.17;;;;;;;20.49;59.54;99544.66;2302004;76;52486;-73
2023/10/25 01:04:55;;;;;;;10.08;6.00;;;;;;;20.51;59.52;99543.38;2326599;76;50693;-72
2023/10/25 01:07:57;;;;;;;10.50;6.00;;;;;;;20.49;59.46;99537.94;2325698;76;51422;-73
2023/10/25 01:10:59;;;;;;;11.15;6.67;;;;;;;20.47;59.46;99527.39;2313228;76;51461;-73
2023/10/25 01:14:02;;;;;;;9.88;5.62;;;;;;;20.46;59.49;99525.77;2284245;76;50082;-74
2023/10/25 01:17:04;;;;;;;10.35;5.90;;;;;;;20.43;59.51;99524.88;2287469;76;51183;-74
2023/10/25 01:20:07;;;;;;;8.48;5.60;;;;;;;20.43;59.52;99519.50;2313282;76;50588;-74
2023/10/25 01:23:10;;;;;;;10.80;6.08;;;;;;;20.40;59.51;99522.11;2312959;76;51541;-75
2023/10/25 01:26:12;;;;;;;10.63;5.40;;;;;;;20.39;59.57;99512.91;2287345;76;51680;-75
2023/10/25 01:29:14;;;;;;;11.05;5.65;;;;;;;20.43;59.60;99519.50;2337891;76;51390;-75
2023/10/25 01:32:16;;;;;;;10.72;5.53;;;;;;;20.44;59.57;99521.13;2312388;76;51429;-75
2023/10/25 01:35:18;;;;;;;11.65;5.72;;;;;;;20.49;59.47;99517.78;2337517;76;51420;-77
2023/10/25 01:38:21;;;;;;;9.95;5.53;;;;;;;20.49;59.42;99522.63;2287590;76;51503;-76
2023/10/25 01:41:23;;;;;;;9.93;5.83;;;;;;;20.48;59.42;99523.69;2298374;76;50995;-74
2023/10/25 01:44:25;;;;;;;9.90;5.12;;;;;;;20.47;59.43;99531.95;2298726;76;50382;-74
2023/10/25 01:47:28;;;;;;;10.93;5.22;;;;;;;20.45;59.42;99533.54;2298529;76;50233;-74
2023/10/25 01:50:30;;;;;;;10.08;5.50;;;;;;;20.44;59.44;99531.88;2298399;76;52329;-73
2023/10/25 01:53:34;;;;;;;9.65;5.67;;;;;;;20.42;59.46;99533.95;2298087;76;50679;-74
2023/10/25 01:56:36;;;;;;;10.28;5.22;;;;;;;20.40;59.47;99533.38;2324338;76;52230;-75
2023/10/25 01:59:38;;;;;;;10.35;5.20;;;;;;;20.40;59.54;99534.73;2298086;76;51475;-75
2023/10/25 02:02:41;;;;;;;8.43;5.33;;;;;;;20.42;59.53;99532.62;2325128;74;50674;-74
2023/10/25 02:05:43;;;;;;;7.47;4.90;;;;;;;20.46;59.45;99533.83;2324597;74;50217;-74
2023/10/25 02:08:45;;;;;;;10.98;5.40;;;;;;;20.48;59.40;99537.13;2273268;76;50139;-74
2023/10/25 02:11:48;;;;;;;8.25;4.83;;;;;;;20.49;59.34;99538.75;2296806;76;50240;-73
2023/10/25 02:14:50;;;;;;;10.88;5.10;;;;;;;20.48;59.33;99538.46;2296909;76;51467;-73
2023/10/25 02:17:52;;;;;;;9.65;5.10;;;;;;;20.48;59.31;99545.70;2323783;76;51476;-73
2023/10/25 02:20:54;;;;;;;8.10;5.05;;;;;;;20.44;59.35;99537.25;2297258;76;51474;-74
2023/10/25 02:23:57;;;;;;;9.03;5.17;;;;;;;20.42;59.38;99542.02;2270563;76;50341;-76
2023/10/25 02:26:59;;;;;;;8.03;4.83;;;;;;;20.40;59.38;99541.45;2285713;77;50254;-75
2023/10/25 02:30:01;;;;;;;8.13;5.03;;;;;;;20.37;59.43;99549.92;2286183;77;51178;-74
2023/10/25 02:33:03;;;;;;;10.58;4.62;;;;;;;20.38;59.43;99555.09;2260478;77;50707;-75
2023/10/25 02:36:05;;;;;;;7.53;5.00;;;;;;;20.43;59.44;99562.48;2267462;76;49769;-74
2023/10/25 02:39:09;;;;;;;7.53;4.35;;;;;;;20.45;59.39;99560.41;2262596;76;51200;-75
2023/10/25 02:42:12;;;;;;;9.08;4.95;;;;;;;20.48;59.33;99549.73;2298989;76;50324;-75
2023/10/25 02:45:14;;;;;;;10.15;4.92;;;;;;;20.47;59.32;99551.58;2298982;76;51524;-76
2023/10/25 02:48:16;;;;;;;7.00;4.65;;;;;;;20.47;59.29;99552.92;2272749;76;50375;-76
2023/10/25 02:51:19;;;;;;;10.68;4.85;;;;;;;20.45;59.29;99559.06;2297895;76;50481;-76
2023/10/25 02:54:21;;;;;;;8.88;4.53;;;;;;;20.44;59.28;99573.00;2298350;76;50864;-76
2023/10/25 02:57:23;;;;;;;8.95;4.83;;;;;;;20.42;59.32;99575.61;2325718;75;50686;-77
2023/10/25 03:00:25;;;;;;;6.87;4.08;;;;;;;20.38;59.38;99578.45;2325682;75;51392;-77
2023/10/25 03:03:28;;;;;;;5.55;4.22;;;;;;;20.38;59.34;99575.77;2273500;76;52327;-77
2023/10/25 03:06:31;;;;;;;7.75;4.92;;;;;;;20.39;59.38;99578.74;2322804;76;51518;-74
2023/10/25 03:09:33;;;;;;;7.67;4.70;;;;;;;20.42;59.37;99585.02;2285969;77;50691;-76
2023/10/25 03:12:36;;;;;;;8.20;4.87;;;;;;;20.44;59.34;99581.59;2316757;76;51411;-75
2023/10/25 03:15:38;;;;;;;7.92;4.47;;;;;;;20.44;59.27;99583.75;2297343;76;50697;-75
2023/10/25 03:18:40;;;;;;;5.80;4.22;;;;;;;20.44;59.23;99585.09;2270367;76;51172;-74
2023/10/25 03:21:42;;;;;;;8.00;3.85;;;;;;;20.45;59.21;99592.13;2323477;76;50363;-73
2023/10/25 03:24:44;;;;;;;6.53;4.35;;;;;;;20.43;59.23;99596.89;2297097;76;50605;-75
2023/10/25 03:27:47;;;;;;;6.95;4.55;;;;;;;20.43;59.21;99601.45;2271484;76;51074;-74
2023/10/25 03:30:49;;;;;;;8.03;4.30;;;;;;;20.41;59.22;99603.00;2296995;76;51531;-75
2023/10/25 03:33:51;;;;;;;5.58;4.25;;;;;;;20.39;59.27;99604.27;2323455;76;51469;-74
2023/10/25 03:36:53;;;;;;;8.13;4.45;;;;;;;20.37;59.25;99603.16;2270643;76;51455;-76
2023/10/25 03:39:56;;;;;;;7.35;3.83;;;;;;;20.39;59.28;99602.92;2300724;76;50209;-75
2023/10/25 03:42:58;;;;;;;6.70;4.40;;;;;;;20.43;59.24;99601.45;2323666;74;52352;-75
2023/10/25 03:46:06;;;;;;;6.75;4.10;;;;;;;20.44;59.21;99601.21;2270801;76;51513;-74
2023/10/25 03:49:08;;;;;;;6.33;4.10;;;;;;;20.46;59.15;99595.63;2323445;76;51471;-75
2023/10/25 03:52:10;;;;;;;6.45;4.00;;;;;;;20.45;59.14;99596.16;2271648;76;50992;-75
2023/10/25 03:55:12;;;;;;;9.63;4.37;;;;;;;20.45;59.09;99596.16;2297315;76;50395;-74
2023/10/25 03:58:14;;;;;;;6.40;4.05;;;;;;;20.44;59.10;99605.77;2298291;76;50501;-76
2023/10/25 04:01:17;;;;;;;7.72;3.85;;;;;;;20.41;59.11;99596.81;2298836;76;50276;-75
2023/10/25 04:04:19;;;;;;;8.28;4.72;;;;;;;20.39;59.14;99601.05;2325026;76;50402;-75
2023/10/25 04:07:21;;;;;;;6.03;4.10;;;;;;;20.38;59.14;99599.42;2247707;76;51186;-75
2023/10/25 04:10:23;;;;;;;6.05;3.80;;;;;;;20.37;59.15;99598.28;2285558;76;50661;-75
2023/10/25 04:13:25;;;;;;;6.55;4.12;;;;;;;20.39;59.17;99600.23;2260586;77;51492;-74
2023/10/25 04:16:28;;;;;;;5.75;3.70;;;;;;;20.42;59.15;99597.95;2271383;76;52510;-75
2023/10/25 04:19:30;;;;;;;7.85;3.83;;;;;;;20.45;59.09;99591.31;2296603;76;51505;-76
2023/10/25 04:22:32;;;;;;;5.78;3.90;;;;;;;20.46;59.04;99592.94;2296885;76;51448;-74
2023/10/25 04:25:34;;;;;;;7.42;3.80;;;;;;;20.44;59.02;99600.39;2270323;76;51408;-75
2023/10/25 04:28:39;;;;;;;6.58;3.85;;;;;;;20.45;59.01;99594.00;2270139;76;51433;-75
2023/10/25 04:31:41;;;;;;;6.65;4.08;;;;;;;20.43;59.00;99598.77;2297026;76;51727;-74
2023/10/25 04:34:43;;;;;;;4.90;3.60;;;;;;;20.41;59.04;99598.16;2270235;76;51453;-74
2023/10/25 04:37:45;;;;;;;7.78;4.33;;;;;;;20.40;58.99;99602.72;2299483;76;51539;-73
2023/10/25 04:40:47;;;;;;;6.30;3.90;;;;;;;20.40;59.00;99603.24;2301814;76;50080;-74
2023/10/25 04:43:50;;;;;;;6.37;3.70;;;;;;;20.39;59.07;99590.83;2326127;75;51336;-74
2023/10/25 04:46:52;;;;;;;4.97;3.50;;;;;;;20.40;59.17;99597.34;2302408;76;51476;-75
2023/10/25 04:49:54;;;;;;;6.80;4.03;;;;;;;20.42;59.19;99593.92;2273231;76;51637;-75
2023/10/25 04:52:56;;;;;;;9.95;4.15;;;;;;;20.45;59.09;99592.13;2326215;76;50298;-75
2023/10/25 04:55:59;;;;;;;5.92;3.62;;;;;;;20.45;59.14;99595.34;2327883;76;50840;-74
2023/10/25 04:59:02;;;;;;;8.85;4.25;;;;;;;20.46;59.27;99586.22;2298799;76;51644;-72
2023/10/25 05:02:04;;;;;;;14.28;4.42;;;;;;;20.46;59.51;99576.82;2295511;76;50790;-75
2023/10/25 05:05:07;;;;;;;10.30;4.10;;;;;;;20.45;59.70;99576.53;2243634;76;51107;-76
2023/10/25 05:08:11;;;;;;;12.30;4.20;;;;;;;20.42;59.80;99575.61;2298771;76;50694;-76
2023/10/25 05:11:16;;;;;;;7.55;4.40;;;;;;;20.41;60.02;99579.34;2331437;75;50703;-76
2023/10/25 05:14:18;;;;;;;9.83;4.22;;;;;;;20.38;60.07;99576.58;2313637;76;51528;-76
2023/10/25 05:17:20;;;;;;;11.68;3.98;;;;;;;20.37;60.11;99573.61;2287079;76;50032;-75
2023/10/25 05:20:23;;;;;;;11.63;4.12;;;;;;;20.40;60.24;99577.72;2260903;76;49990;-76
2023/10/25 05:23:30;;;;;;;16.30;6.60;;;;;;;20.43;60.21;99577.27;2313292;76;50703;-75
2023/10/25 05:26:33;;;;;;;16.02;6.72;;;;;;;20.49;59.25;99579.05;2311403;76;51603;-77
2023/10/25 05:29:35;;;;;;;11.40;5.75;;;;;;;20.44;58.20;99574.34;2275097;76;52292;-77
2023/10/25 05:32:39;;;;;;;15.83;5.17;;;;;;;20.49;58.43;99575.55;2275255;76;50467;-77
2023/10/25 05:35:41;;;;;;;12.60;5.37;;;;;;;20.58;58.33;99574.27;2300790;76;50430;-77
2023/10/25 05:38:44;;;;;;;16.37;4.65;;;;;;;20.55;58.38;99579.56;2265658;77;50697;-76
2023/10/25 05:41:46;;;;;;;11.35;4.72;;;;;;;20.54;58.46;99576.55;2261609;77;50460;-77
2023/10/25 05:44:51;;;;;;;14.07;4.35;;;;;;;20.54;58.63;99581.94;2250269;77;51677;-76
2023/10/25 05:47:54;;;;;;;12.28;4.40;;;;;;;20.53;58.76;99572.20;2262013;77;22144;-75
2023/10/25 05:50:56;;;;;;;16.00;4.00;;;;;;;20.61;58.61;99579.19;2261838;77;50074;-76
2023/10/25 05:53:59;;;;;;;12.55;4.10;;;;;;;20.68;58.45;99582.64;2299668;76;52471;-78
2023/10/25 05:57:02;;;;;;;13.03;4.60;;;;;;;20.72;58.56;99587.03;2273427;76;50327;-76
2023/10/25 06:00:06;;;;;;;15.95;4.42;;;;;;;20.87;58.33;99588.84;2273979;76;50694;-80
2023/10/25 06:03:08;;;;;;;14.13;4.50;;;;;;;20.88;58.21;99597.19;2260456;77;50523;-79
2023/10/25 06:06:12;;;;;;;14.87;4.25;;;;;;;20.90;58.22;99592.42;2291691;76;50482;-79
2023/10/25 06:09:14;;;;;;;14.45;4.25;;;;;;;20.91;58.22;99603.48;2287133;74;51690;-81
2023/10/25 06:12:17;;;;;;;8.68;3.52;;;;;;;20.86;58.30;99600.13;2309898;76;50779;-77
2023/10/25 06:15:19;;;;;;;18.05;4.40;;;;;;;20.81;58.36;99597.81;2310610;76;50706;-79
2023/10/25 06:18:22;;;;;;;13.60;4.10;;;;;;;20.83;58.29;99614.02;2281809;76;51651;-80
2023/10/25 06:21:25;;;;;;;14.20;4.20;;;;;;;20.78;58.34;99613.02;2298493;76;50957;-80
2023/10/25 06:24:27;;;;;;;11.75;3.87;;;;;;;20.76;58.42;99607.88;2326857;76;50301;-80
2023/10/25 06:27:29;;;;;;;14.05;4.53;;;;;;;20.78;58.34;99600.92;2300678;75;51243;-79
2023/10/25 06:30:33;;;;;;;12.18;3.75;;;;;;;20.79;58.35;99614.16;2299751;76;51431;-79
2023/10/25 06:33:35;;;;;;;11.97;4.00;;;;;;;20.86;58.17;99616.78;2299375;76;51248;-79
2023/10/25 06:36:38;;;;;;;10.03;4.08;;;;;;;20.81;58.22;99619.31;2302022;76;50635;-79
2023/10/25 06:39:40;;;;;;;15.53;4.03;;;;;;;20.80;58.24;99617.66;2286555;77;50450;-80
2023/10/25 06:42:43;;;;;;;10.75;4.25;;;;;;;20.76;58.28;99624.02;2236005;77;51465;-79
2023/10/25 06:45:47;;;;;;;15.58;4.08;;;;;;;20.75;58.32;99626.38;2223322;79;50678;-79
2023/10/25 06:48:50;;;;;;;8.93;3.65;;;;;;;20.74;58.31;99615.87;2247623;79;50488;-79
2023/10/25 06:51:52;;;;;;;15.60;3.70;;;;;;;20.72;58.37;99627.36;2192297;77;51265;-80
2023/10/25 06:54:55;;;;;;;9.83;3.42;;;;;;;20.68;58.47;99624.80;2305625;76;51524;-80
2023/10/25 06:57:57;;;;;;;9.78;3.62;;;;;;;20.73;58.36;99618.23;2255000;76;51673;-80
2023/10/25 07:01:00;;;;;;;7.95;3.67;;;;;;;20.78;58.30;99622.42;2306698;76;50754;-80
2023/10/25 07:04:02;;;;;;;8.43;3.25;;;;;;;20.87;58.06;99632.67;2340468;76;50912;-79
2023/10/25 07:07:04;;;;;;;10.82;3.60;;;;;;;20.94;57.90;99635.83;2332177;76;50563;-80
2023/10/25 07:10:11;;;;;;;9.68;3.30;;;;;;;20.92;57.87;99629.85;2328911;75;51158;-80
2023/10/25 07:13:13;;;;;;;7.72;3.52;;;;;;;20.88;57.96;99624.08;2326729;76;51636;-80
2023/10/25 07:16:15;;;;;;;10.00;3.22;;;;;;;20.87;57.96;99624.61;2299348;76;51631;-79
2023/10/25 07:19:18;;;;;;;8.55;3.12;;;;;;;20.82;57.99;99622.30;2336193;76;51424;-80
2023/10/25 07:22:20;;;;;;;10.10;3.35;;;;;;;20.78;58.12;99621.08;2282918;76;51821;-79
2023/10/25 07:25:22;;;;;;;10.10;3.45;;;;;;;20.74;58.18;99621.24;2299830;76;51635;-80
2023/10/25 07:28:24;;;;;;;13.22;3.85;;;;;;;20.70;58.29;99620.03;2326238;75;50688;-80
2023/10/25 07:31:27;;;;;;;9.33;3.20;;;;;;;20.75;58.21;99621.53;2330460;75;50354;-78
2023/10/25 07:34:29;;;;;;;9.33;3.52;;;;;;;20.81;58.09;99624.69;2321662;75;51371;-79
2023/10/25 07:37:31;;;;;;;9.93;3.22;;;;;;;20.79;58.26;99620.05;2290692;76;50354;-79
2023/10/25 07:40:34;;;;;;;12.07;3.50;;;;;;;20.77;58.43;99632.89;2299222;76;52435;-79
2023/10/25 07:43:36;;;;;;;10.23;3.85;;;;;;;20.82;58.44;99628.48;2299060;76;51464;-79
2023/10/25 07:46:38;;;;;;;10.40;3.52;;;;;;;20.81;58.46;99632.23;2357374;75;51945;-78
2023/10/25 07:49:45;;;;;;;11.85;4.00;;;;;;;20.77;58.64;99629.67;2277043;75;51145;-79
2023/10/25 07:52:45;;;;;;;10.60;3.52;;;;;;;20.70;58.89;99628.91;2299207;76;21816;-79
2023/10/25 07:55:47;;;;;;;8.08;3.40;;;;;;;20.68;59.02;99634.20;2313613;75;50916;-79
2023/10/25 07:58:50;;;;;;;13.43;3.87;;;;;;;20.65;59.10;99639.01;2283152;76;51014;-80
2023/10/25 08:01:52;;;;;;;9.95;3.35;;;;;;;20.66;59.12;99637.95;2331343;75;51696;-78
2023/10/25 08:04:55;;;;;;;7.67;3.50;;;;;;;20.64;59.13;99629.28;2274829;76;51707;-78
2023/10/25 08:07:57;;;;;;;7.50;3.10;;;;;;;20.76;58.77;99627.23;2273979;76;50707;-78
2023/10/25 08:11:02;;;;;;;9.30;4.10;;;;;;;20.82;58.56;99618.26;2300281;74;50743;-78
2023/10/25 08:14:04;;;;;;;7.15;2.60;;;;;;;20.83;58.50;99618.55;2299668;76;52643;-77
2023/10/25 08:17:07;;;;;;;14.58;3.08;;;;;;;20.87;58.40;99619.23;2351028;75;50625;-78
2023/10/25 08:20:10;;;;;;;11.12;3.50;;;;;;;20.77;58.78;99608.17;2365300;75;51534;-78
2023/10/25 08:23:12;;;;;;;7.58;3.08;;;;;;;20.75;58.88;99606.75;2309522;75;51600;-78
2023/10/25 08:26:14;;;;;;;5.37;3.05;;;;;;;20.76;58.90;99612.44;2321614;75;50227;-79
2023/10/25 08:29:17;;;;;;;7.10;3.45;;;;;;;20.71;59.03;99602.35;2340460;75;50799;-77
2023/10/25 08:32:19;;;;;;;14.10;2.95;;;;;;;20.69;59.11;99599.59;2323055;75;51474;-78
2023/10/25 08:35:22;;;;;;;7.65;3.12;;;;;;;20.69;59.12;99601.74;2315876;75;51544;-78
2023/10/25 08:38:24;;;;;;;4.28;3.00;;;;;;;20.69;59.12;99603.62;2271895;75;52518;-79
2023/10/25 08:41:27;;;;;;;7.55;2.80;;;;;;;20.76;58.98;99600.34;2327942;75;50638;-79
2023/10/25 08:44:32;;;;;;;6.65;3.20;;;;;;;20.77;58.89;99596.07;2301606;76;51513;-78
2023/10/25 08:47:35;;;;;;;8.45;3.22;;;;;;;20.77;58.93;99603.31;2342456;74;22432;-80
2023/10/25 08:50:39;;;;;;;8.43;3.35;;;;;;;20.76;58.95;99608.41;2337106;75;25599;-78
2023/10/25 08:53:41;;;;;;;7.35;3.15;;;;;;;20.75;58.99;99608.09;2325955;76;51991;-78
2023/10/25 08:56:45;;;;;;;7.85;3.25;;;;;;;20.76;58.87;99615.13;2324133;76;50876;-78
2023/10/25 08:59:47;;;;;;;10.95;3.50;;;;;;;20.76;58.79;99618.63;2286670;77;50410;-78
2023/10/25 09:02:50;;;;;;;11.40;4.92;;;;;;;20.74;58.83;99622.59;2275334;75;51872;-78
2023/10/25 09:05:52;;;;;;;11.12;6.00;;;;;;;20.65;59.00;99622.88;2323590;74;50320;-78
2023/10/25 09:09:05;;;;;;;15.63;8.90;;;;;;;20.66;58.97;99624.52;2330230;76;50695;-76
2023/10/25 09:12:02;;;;;;;27.65;11.63;;;;;;;20.74;58.78;99632.81;2313138;76;23334;-78
2023/10/25 09:15:09;;;;;;;26.77;13.40;;;;;;;20.85;58.49;99636.63;2315517;76;51415;-79
2023/10/25 09:18:18;;;;;;;28.92;15.20;;;;;;;20.91;58.31;99636.25;2313190;76;50841;-79
2023/10/25 09:21:29;;;;;;;34.67;16.52;;;;;;;20.90;58.26;99638.13;2326941;76;21814;-79
2023/10/25 09:28:48;;;;;;;40.65;21.02;;;;;;;20.82;58.39;99627.67;2337235;76;24121;-79
2023/10/25 09:31:58;;;;;;;42.27;22.25;;;;;;;20.76;58.49;99626.70;2157810;82;21827;-79
2023/10/25 09:35:32;;;;;;;49.60;23.65;;;;;;;20.71;58.66;99620.35;2111907;83;22459;-79
2023/10/25 09:38:34;;;;;;;57.15;27.15;;;;;;;20.69;58.77;99621.91;2111418;83;50758;-78
2023/10/25 09:42:10;;;;;;;61.35;29.77;;;;;;;20.69;58.88;99615.71;2118501;83;51688;-79
2023/10/25 09:45:16;;;;;;;58.45;30.65;;;;;;;20.73;58.95;99610.17;2096881;83;22546;-79
2023/10/25 09:48:20;;;;;;;61.10;32.13;;;;;;;20.75;59.04;99605.41;2098766;82;50711;-78
2023/10/25 09:51:46;;;;;;;66.70;34.08;;;;;;;20.78;58.99;99600.92;2109994;83;50717;-79
2023/10/25 09:54:48;;;;;;;;;;;;;;;20.78;58.99;99606.30;2113615;84;21879;-77
2023/10/25 09:57:51;;;;;;;73.37;36.05;;;;;;;20.79;58.96;99606.61;2120990;82;50289;-78
2023/10/25 10:00:54;;;;;;;68.22;36.98;;;;;;;20.79;58.93;99611.98;2124768;83;50834;-80
2023/10/25 10:04:05;;;;;;;79.50;39.15;;;;;;;20.81;58.83;99609.91;2074122;84;52531;-78
2023/10/25 10:07:19;;;;;;;72.00;37.95;;;;;;;20.79;58.84;99610.65;2096655;80;50090;-79
2023/10/25 10:10:30;;;;;;;74.62;39.42;;;;;;;20.69;59.12;99604.95;2213222;80;50776;-78
2023/10/25 10:13:33;;;;;;;77.67;38.75;;;;;;;20.71;59.18;99608.25;2290258;76;52072;-79
2023/10/25 10:16:35;;;;;;;81.08;39.05;;;;;;;20.78;58.99;99608.98;2327939;76;51455;-78
2023/10/25 10:19:42;;;;;;;79.30;38.80;;;;;;;20.83;58.87;99609.98;2327500;74;51682;-78
2023/10/25 10:23:05;;;;;;;77.05;37.93;;;;;;;20.89;58.83;99610.95;2301334;76;50748;-78
2023/10/25 10:26:08;;;;;;;69.22;36.38;;;;;;;20.82;58.95;99599.44;2328201;76;51401;-77
2023/10/25 10:29:36;;;;;;;76.05;37.48;;;;;;;20.76;59.03;99601.16;2301941;76;52586;-78
2023/10/25 10:32:40;;;;;;;69.05;36.45;;;;;;;20.74;59.11;99604.59;2329275;76;50332;-78
2023/10/25 10:35:48;;;;;;;69.12;37.45;;;;;;;20.69;59.24;99597.71;2305789;76;50594;-78
2023/10/25 10:39:11;;;;;;;75.15;38.15;;;;;;;20.66;59.36;99595.47;2290403;76;50561;-79
2023/10/25 10:42:17;;;;;;;73.55;35.05;;;;;;;20.58;59.50;99593.89;2324641;75;50091;-77
2023/10/25 10:45:19;;;;;;;;;;;;;;;20.66;59.60;99588.75;2303373;75;52021;-77
2023/10/25 10:48:25;;;;;;;73.25;36.25;;;;;;;20.74;59.37;99591.14;2327158;76;50530;-78
2023/10/25 10:51:27;;;;;;;72.30;34.05;;;;;;;20.78;59.24;99583.44;2327784;76;50275;-79
2023/10/25 10:54:29;;;;;;;69.47;34.65;;;;;;;20.77;59.22;99573.75;2327627;76;51527;-79
2023/10/25 10:57:32;;;;;;;65.95;32.88;;;;;;;20.78;59.16;99572.19;2301229;76;50751;-78
2023/10/25 11:00:34;;;;;;;70.40;32.85;;;;;;;20.79;59.16;99575.70;2301300;76;50736;-78
2023/10/25 11:03:38;;;;;;;67.80;31.95;;;;;;;20.76;59.20;99579.66;2300951;76;50061;-78
2023/10/25 11:06:40;;;;;;;62.53;31.57;;;;;;;20.75;59.18;99569.92;2287316;77;50363;-78
2023/10/25 11:09:43;;;;;;;62.27;32.00;;;;;;;20.73;59.20;99571.20;2298742;76;50713;-78
2023/10/25 11:12:45;;;;;;;63.30;30.55;;;;;;;20.67;59.32;99570.23;2326466;76;51468;-78
2023/10/25 11:15:47;;;;;;;63.20;30.37;;;;;;;20.65;59.44;99561.56;2326710;76;50708;-78
2023/10/25 11:18:49;;;;;;;54.88;28.15;;;;;;;20.73;59.24;99562.63;2327047;76;52517;-78
2023/10/25 11:21:52;;;;;;;54.93;28.70;;;;;;;20.86;58.94;99563.01;2301284;76;51541;-78
2023/10/25 11:24:54;;;;;;;55.63;27.55;;;;;;;20.87;58.88;99557.91;2300679;76;51417;-78
2023/10/25 11:27:57;;;;;;;60.00;28.30;;;;;;;20.82;58.92;99553.73;2274755;76;51487;-78
2023/10/25 11:31:05;;;;;;;57.85;27.93;;;;;;;20.79;58.99;99561.72;2300508;76;50018;-78
2023/10/25 11:34:07;;;;;;;52.35;27.07;;;;;;;20.79;58.98;99560.91;2300690;76;50697;-78
2023/10/25 11:37:11;;;;;;;51.15;26.77;;;;;;;20.75;59.04;99558.36;2294631;76;51519;-78
2023/10/25 11:40:14;;;;;;;55.10;27.20;;;;;;;20.73;59.09;99551.87;2327737;76;50827;-78
2023/10/25 11:43:16;;;;;;;58.90;26.62;;;;;;;20.72;59.11;99544.03;2301306;76;49901;-78
2023/10/25 11:46:20;;;;;;;54.67;25.57;;;;;;;20.68;59.22;99540.13;2327716;76;50385;-78
2023/10/25 11:49:22;;;;;;;54.58;25.02;;;;;;;20.72;59.15;99540.81;2274260;76;51856;-79
2023/10/25 11:52:28;;;;;;;51.00;25.85;;;;;;;20.80;58.88;99528.94;2300278;76;50722;-78
2023/10/25 11:55:31;;;;;;;50.60;24.87;;;;;;;20.79;58.87;99530.80;2327056;74;50656;-78
2023/10/25 11:58:33;;;;;;;45.73;23.70;;;;;;;20.78;58.89;99523.80;2300859;76;50908;-77
2023/10/25 12:01:35;;;;;;;49.15;23.95;;;;;;;20.78;58.85;99518.92;2300683;76;50633;-79
2023/10/25 12:04:37;;;;;;;47.67;22.87;;;;;;;20.79;58.84;99525.96;2301187;76;51612;-78
2023/10/25 12:07:40;;;;;;;48.60;23.35;;;;;;;20.73;58.98;99512.05;2303026;76;50416;-78
2023/10/25 12:10:42;;;;;;;48.55;22.98;;;;;;;20.72;58.99;99509.08;2340330;75;50646;-78
2023/10/25 12:13:45;;;;;;;52.67;22.05;;;;;;;20.68;59.06;99499.31;2315691;76;50739;-77
2023/10/25 12:16:47;;;;;;;47.80;20.85;;;;;;;20.65;59.11;99491.17;2289888;76;51576;-77
2023/10/25 12:19:51;;;;;;;41.75;20.82;;;;;;;20.66;59.13;99494.16;2340278;76;52654;-78
2023/10/25 12:22:53;;;;;;;44.60;20.70;;;;;;;20.76;58.95;99495.50;2339436;76;50779;-77
2023/10/25 12:25:55;;;;;;;44.13;20.35;;;;;;;20.81;58.72;99491.08;2288581;76;50488;-78
2023/10/25 12:28:58;;;;;;;42.40;20.43;;;;;;;20.78;58.80;99483.97;2340289;76;50817;-78
2023/10/25 12:32:00;;;;;;;47.50;20.95;;;;;;;20.81;58.70;99476.83;2315399;76;50295;-78
2023/10/25 12:35:02;;;;;;;44.42;20.35;;;;;;;20.79;58.72;99473.54;2288315;76;51397;-78
2023/10/25 12:38:04;;;;;;;39.40;19.12;;;;;;;20.79;58.70;99474.87;2269451;76;50241;-78
2023/10/25 12:41:07;;;;;;;41.83;18.87;;;;;;;20.79;58.69;99469.50;2341631;75;51703;-78
2023/10/25 12:44:09;;;;;;;40.88;18.65;;;;;;;20.77;58.76;99466.22;2339258;74;52147;-78
2023/10/25 12:47:11;;;;;;;38.67;18.27;;;;;;;20.75;58.76;99456.20;2315230;76;52006;-78
2023/10/25 12:50:13;;;;;;;41.65;18.75;;;;;;;20.73;58.86;99455.61;2315964;76;50706;-78
2023/10/25 12:53:15;;;;;;;40.78;17.98;;;;;;;20.76;58.75;99448.45;2315464;76;50762;-78
2023/10/25 12:56:18;;;;;;;36.93;18.20;;;;;;;20.81;58.66;99443.22;2315104;76;51406;-78
2023/10/25 12:59:20;;;;;;;40.30;16.93;;;;;;;20.81;58.61;99439.19;2340005;76;50304;-78
2023/10/25 13:02:22;;;;;;;36.70;17.27;;;;;;;20.80;58.62;99444.25;2340080;76;50702;-78
2023/10/25 13:05:24;;;;;;;39.10;16.45;;;;;;;20.81;58.56;99444.56;2288411;76;52831;-77
2023/10/25 13:08:26;;;;;;;38.55;17.42;;;;;;;20.77;58.67;99442.83;2301488;76;52192;-78
2023/10/25 13:11:30;;;;;;;33.45;15.78;;;;;;;20.76;58.73;99443.08;2327644;76;51415;-78
2023/10/25 13:14:32;;;;;;;33.45;15.10;;;;;;;20.74;58.72;99441.95;2301333;76;50462;-78
2023/10/25 13:17:34;;;;;;;37.08;16.15;;;;;;;20.73;58.73;99442.16;2327901;75;50630;-77
2023/10/25 13:20:36;;;;;;;31.57;14.73;;;;;;;20.64;58.95;99441.14;2326640;76;52327;-77
2023/10/25 13:23:39;;;;;;;35.73;15.43;;;;;;;20.70;58.85;99448.00;2299009;76;50331;-78
2023/10/25 13:26:41;;;;;;;37.55;15.70;;;;;;;20.72;58.76;99440.53;2325894;76;50322;-78
2023/10/25 13:29:43;;;;;;;34.25;14.70;;;;;;;20.72;58.78;99435.97;2299559;76;51662;-78
2023/10/25 13:32:45;;;;;;;35.30;14.73;;;;;;;20.73;58.71;99426.03;2273911;76;50542;-78
2023/10/25 13:35:52;;;;;;;29.23;13.83;;;;;;;20.74;58.65;99436.57;2326213;75;50708;-80
2023/10/25 13:38:51;;;;;;;26.33;13.48;;;;;;;20.74;58.64;99423.66;2329136;76;22320;-78
2023/10/25 13:41:54;;;;;;;26.55;13.53;;;;;;;20.72;58.70;99421.72;2324624;76;50367;-79
2023/10/25 13:44:56;;;;;;;27.65;13.60;;;;;;;20.67;58.79;99426.42;2272948;76;51603;-79
2023/10/25 13:47:58;;;;;;;30.62;13.40;;;;;;;20.63;58.87;99416.66;2298836;76;51596;-79
2023/10/25 13:51:00;;;;;;;26.73;13.05;;;;;;;20.61;58.90;99424.13;2299019;76;50693;-79
2023/10/25 13:54:02;;;;;;;28.85;13.08;;;;;;;20.60;58.97;99413.09;2273415;76;51102;-79
2023/10/25 13:57:05;;;;;;;25.15;13.05;;;;;;;20.70;58.73;99403.64;2325070;76;50420;-78
2023/10/25 14:00:10;;;;;;;29.15;12.65;;;;;;;20.76;58.54;99399.54;2298897;76;50769;-79
2023/10/25 14:03:13;;;;;;;27.20;12.23;;;;;;;20.73;58.56;99402.69;2325500;76;50809;-78
2023/10/25 14:06:16;;;;;;;25.02;12.73;;;;;;;20.76;58.49;99393.34;2300426;76;50095;-78
2023/10/25 14:09:18;;;;;;;27.02;12.53;;;;;;;20.77;58.45;99385.56;2334870;74;50766;-79
2023/10/25 14:12:20;;;;;;;27.02;11.90;;;;;;;20.75;58.45;99372.88;2338857;76;51497;-79
2023/10/25 14:15:23;;;;;;;25.45;12.13;;;;;;;20.75;58.44;99368.31;2338912;76;51552;-78
2023/10/25 14:18:25;;;;;;;23.18;12.15;;;;;;;20.70;58.54;99363.33;2288524;76;51743;-78